createdAt,value
2018-01-04T00:01:23.026Z,97927
2018-01-04T00:03:52.893Z,97924
2018-01-04T00:06:22.783Z,97938
2018-01-04T00:08:52.714Z,97895
2018-01-04T00:11:22.539Z,97935
2018-01-04T00:16:28.739Z,97953
2018-01-04T00:18:58.620Z,97952
2018-01-04T00:21:28.562Z,97949
2018-01-04T00:23:58.443Z,97937
2018-01-04T00:26:28.532Z,97941
2018-01-04T00:31:34.991Z,97972
2018-01-04T00:34:04.925Z,97968
2018-01-04T00:39:09.950Z,97965
2018-01-04T00:41:39.874Z,97972
2018-01-04T00:44:09.765Z,97979
2018-01-04T00:46:39.736Z,97982
2018-01-04T00:49:09.642Z,97991
2018-01-04T00:51:39.525Z,97998
2018-01-04T00:54:09.422Z,97968
2018-01-04T00:56:39.423Z,97992
2018-01-04T00:59:09.355Z,98003
2018-01-04T01:01:39.223Z,98014
2018-01-04T01:04:09.083Z,98004
2018-01-04T01:06:38.985Z,98011
2018-01-04T01:09:08.855Z,98002
2018-01-04T01:11:38.733Z,98029
2018-01-04T01:14:08.632Z,98048
2018-01-04T01:16:38.505Z,98039
2018-01-04T01:19:08.370Z,98054
2018-01-04T01:21:38.344Z,98054
2018-01-04T01:24:08.239Z,98066
2018-01-04T01:26:38.158Z,98050
2018-01-04T01:29:08.427Z,98057
2018-01-04T01:31:38.278Z,98054
2018-01-04T01:34:08.265Z,98064
2018-01-04T01:36:38.112Z,98061
2018-01-04T01:39:07.995Z,98081
2018-01-04T01:41:37.854Z,98085
2018-01-04T01:44:07.730Z,98076
2018-01-04T01:49:15.853Z,98074
2018-01-04T01:51:45.748Z,98077
2018-01-04T01:54:15.623Z,98094
2018-01-04T01:56:45.519Z,98084
2018-01-04T01:59:15.377Z,98102
2018-01-04T02:01:45.255Z,98107
2018-01-04T02:04:20.721Z,98096
2018-01-04T02:06:50.624Z,98097
2018-01-04T02:09:20.487Z,98092
2018-01-04T02:11:50.367Z,98101
2018-01-04T02:14:20.228Z,98123
2018-01-04T02:16:50.134Z,98126
2018-01-04T02:19:31.641Z,98131
2018-01-04T02:22:13.239Z,98127
2018-01-04T02:28:00.029Z,98134
2018-01-04T02:30:37.794Z,98132
2018-01-04T02:33:19.591Z,98147
2018-01-04T02:36:01.236Z,98193
2018-01-04T02:41:50.036Z,98171
2018-01-04T02:44:31.758Z,98157
2018-01-04T02:47:01.630Z,98196
2018-01-04T02:49:31.526Z,98174
2018-01-04T02:52:01.367Z,98191
2018-01-04T02:54:31.246Z,98179
2018-01-04T02:57:01.111Z,98173
2018-01-04T02:59:30.988Z,98179
2018-01-04T03:02:00.875Z,98182
2018-01-04T03:04:30.745Z,98186
2018-01-04T03:07:00.609Z,98188
2018-01-04T03:09:30.570Z,98187
2018-01-04T03:12:00.469Z,98197
2018-01-04T03:14:30.356Z,98195
2018-01-04T03:17:00.227Z,98200
2018-01-04T03:19:30.088Z,98211
2018-01-04T03:22:05.737Z,98195
2018-01-04T03:24:41.327Z,98204
2018-01-04T03:27:17.075Z,98192
2018-01-04T03:29:52.636Z,98207
2018-01-04T03:32:28.248Z,98252
2018-01-04T03:35:03.789Z,98209
2018-01-04T03:37:39.363Z,98210
2018-01-04T03:40:14.893Z,98209
2018-01-04T03:42:50.467Z,98219
2018-01-04T03:45:26.051Z,98222
2018-01-04T03:48:01.568Z,98222
2018-01-04T03:50:37.030Z,98210
2018-01-04T03:53:12.579Z,98147
2018-01-04T03:55:47.874Z,98229
2018-01-04T03:58:17.771Z,98240
2018-01-04T04:00:53.234Z,98234
2018-01-04T04:03:23.171Z,98246
2018-01-04T04:05:58.571Z,98244
2018-01-04T04:08:33.969Z,98237
2018-01-04T04:11:03.928Z,98240
2018-01-04T04:13:34.407Z,98240
2018-01-04T04:16:04.335Z,98243
2018-01-04T04:18:34.236Z,98252
2018-01-04T04:21:04.081Z,98273
2018-01-04T04:23:34.016Z,98267
2018-01-04T04:26:03.873Z,98271
2018-01-04T04:28:33.738Z,98270
2018-01-04T04:31:03.662Z,98269
2018-01-04T04:33:33.591Z,98270
2018-01-04T04:36:03.446Z,98280
2018-01-04T04:38:33.328Z,98275
2018-01-04T04:41:03.246Z,98282
2018-01-04T04:43:33.091Z,98286
2018-01-04T04:46:02.984Z,98288
2018-01-04T04:48:32.894Z,98298
2018-01-04T04:53:37.961Z,98309
2018-01-04T04:56:07.796Z,98302
2018-01-04T04:58:37.685Z,98308
2018-01-04T05:01:07.537Z,98310
2018-01-04T05:03:37.422Z,98312
2018-01-04T05:06:07.303Z,98317
2018-01-04T05:08:37.205Z,98320
2018-01-04T05:11:07.037Z,98327
2018-01-04T05:13:36.984Z,98324
2018-01-04T05:16:06.880Z,98326
2018-01-04T05:18:36.770Z,98326
2018-01-04T05:21:06.629Z,98317
2018-01-04T05:23:36.481Z,98318
2018-01-04T05:26:06.437Z,98323
2018-01-04T05:28:36.314Z,98322
2018-01-04T05:31:06.178Z,98323
2018-01-04T05:33:37.391Z,98317
2018-01-04T05:36:07.282Z,98311
2018-01-04T05:43:48.299Z,98317
2018-01-04T05:46:18.191Z,98320
2018-01-04T05:48:48.041Z,98319
2018-01-04T05:51:17.933Z,98322
2018-01-04T05:53:47.829Z,98325
2018-01-04T05:56:17.744Z,98325
2018-01-04T05:58:47.597Z,98325
2018-01-04T06:01:17.450Z,98332
2018-01-04T06:03:47.348Z,98330
2018-01-04T06:06:17.223Z,98338
2018-01-04T06:08:47.125Z,98311
2018-01-04T06:11:16.979Z,98323
2018-01-04T06:13:46.842Z,98331
2018-01-04T06:16:16.706Z,98337
2018-01-04T06:18:47.543Z,98342
2018-01-04T06:21:17.412Z,98345
2018-01-04T06:23:47.266Z,98347
2018-01-04T06:26:17.138Z,98351
2018-01-04T06:28:47.004Z,98346
2018-01-04T06:33:52.119Z,98351
2018-01-04T06:36:22.107Z,98341
2018-01-04T06:38:51.949Z,98352
2018-01-04T06:41:21.852Z,98356
2018-01-04T06:43:51.732Z,98356
2018-01-04T06:48:56.667Z,98358
2018-01-04T06:51:26.508Z,98356
2018-01-04T06:53:56.438Z,98363
2018-01-04T06:56:26.405Z,98364
2018-01-04T06:58:56.376Z,98350
2018-01-04T07:01:26.235Z,98354
2018-01-04T07:03:56.208Z,98363
2018-01-04T07:06:26.165Z,98361
2018-01-04T07:08:56.041Z,98366
2018-01-04T07:11:25.945Z,98363
2018-01-04T07:13:55.849Z,98382
2018-01-04T07:16:25.708Z,98384
2018-01-04T07:18:55.574Z,98385
2018-01-04T07:21:26.124Z,98384
2018-01-04T07:23:55.983Z,98402
2018-01-04T07:26:26.160Z,98405
2018-01-04T07:28:56.027Z,98400
2018-01-04T07:31:25.998Z,98395
2018-01-04T07:33:55.846Z,98386
2018-01-04T07:36:25.907Z,98391
2018-01-04T07:38:55.786Z,98396
2018-01-04T07:41:25.751Z,98401
2018-01-04T07:43:55.593Z,98394
2018-01-04T07:46:25.429Z,98385
2018-01-04T07:48:55.901Z,98390
2018-01-04T07:51:25.747Z,98398
2018-01-04T07:53:55.621Z,98403
2018-01-04T07:56:25.487Z,98409
2018-01-04T07:58:55.378Z,98420
2018-01-04T08:01:25.263Z,98414
2018-01-04T08:03:55.188Z,98411
2018-01-04T08:06:25.077Z,98420
2018-01-04T08:08:54.957Z,98422
2018-01-04T08:11:24.844Z,98418
2018-01-04T08:13:54.697Z,98408
2018-01-04T08:16:24.601Z,98411
2018-01-04T08:18:54.478Z,98415
2018-01-04T08:21:24.380Z,98412
2018-01-04T08:23:54.332Z,98418
2018-01-04T08:26:24.189Z,98411
2018-01-04T08:28:54.169Z,98415
2018-01-04T08:31:24.036Z,98416
2018-01-04T08:33:53.928Z,98415
2018-01-04T08:36:23.762Z,98414
2018-01-04T08:38:53.670Z,98409
2018-01-04T08:41:23.622Z,98416
2018-01-04T08:43:53.485Z,98418
2018-01-04T08:46:23.564Z,98444
2018-01-04T08:48:53.424Z,98431
2018-01-04T08:51:23.331Z,98430
2018-01-04T08:53:53.186Z,98429
2018-01-04T08:56:23.058Z,98434
2018-01-04T08:58:52.927Z,98441
2018-01-04T09:01:22.819Z,98441
2018-01-04T09:03:52.737Z,98442
2018-01-04T09:06:22.623Z,98435
2018-01-04T09:08:52.464Z,98449
2018-01-04T09:11:22.314Z,98446
2018-01-04T09:13:52.228Z,98447
2018-01-04T09:16:22.140Z,98452
2018-01-04T09:18:52.215Z,98447
2018-01-04T09:21:22.050Z,98443
2018-01-04T09:23:52.014Z,98441
2018-01-04T09:26:21.851Z,98440
2018-01-04T09:28:51.705Z,98445
2018-01-04T09:31:21.564Z,98451
2018-01-04T09:33:51.418Z,98451
2018-01-04T09:36:21.267Z,98454
2018-01-04T09:38:51.185Z,98452
2018-01-04T09:41:21.054Z,98449
2018-01-04T09:43:50.919Z,98451
2018-01-04T09:46:20.769Z,98454
2018-01-04T09:48:50.695Z,98457
2018-01-04T09:51:20.550Z,98453
2018-01-04T09:53:50.434Z,98460
2018-01-04T09:56:20.403Z,98451
2018-01-04T09:58:50.406Z,98448
2018-01-04T10:01:20.803Z,98445
2018-01-04T10:03:50.676Z,98447
2018-01-04T10:06:20.541Z,98450
2018-01-04T10:08:50.444Z,98452
2018-01-04T10:11:20.318Z,98451
2018-01-04T10:13:50.185Z,98425
2018-01-04T10:16:20.062Z,98446
2018-01-04T10:18:49.978Z,98449
2018-01-04T10:21:19.849Z,98453
2018-01-04T10:23:49.725Z,98445
2018-01-04T10:26:19.592Z,98440
2018-01-04T10:28:49.450Z,98442
2018-01-04T10:31:19.338Z,98441
2018-01-04T10:33:49.181Z,98444
2018-01-04T10:39:25.565Z,98476
2018-01-04T10:41:55.466Z,98452
2018-01-04T10:44:25.370Z,98450
2018-01-04T10:46:55.228Z,98444
2018-01-04T10:49:25.122Z,98447
2018-01-04T10:51:54.987Z,98443
2018-01-04T10:54:24.893Z,98462
2018-01-04T10:56:54.924Z,98449
2018-01-04T10:59:24.808Z,98443
2018-01-04T11:01:54.649Z,98448
2018-01-04T11:04:24.583Z,98446
2018-01-04T11:06:54.459Z,98434
2018-01-04T11:09:24.547Z,98387
2018-01-04T11:11:54.448Z,98442
2018-01-04T11:14:24.431Z,98434
2018-01-04T11:22:53.572Z,98450
2018-01-04T11:25:23.453Z,98436
2018-01-04T11:27:53.381Z,98427
2018-01-04T11:30:23.294Z,98431
2018-01-04T11:32:53.251Z,98423
2018-01-04T11:35:23.214Z,98427
2018-01-04T11:37:53.107Z,98419
2018-01-04T11:40:23.062Z,98426
2018-01-04T11:42:53.635Z,98418
2018-01-04T11:45:23.496Z,98417
2018-01-04T11:47:53.533Z,98411
2018-01-04T11:50:23.449Z,98406
2018-01-04T11:52:53.374Z,98401
2018-01-04T11:55:23.343Z,98404
2018-01-04T11:57:53.236Z,98400
2018-01-04T12:00:23.124Z,98413
2018-01-04T12:05:32.673Z,98411
2018-01-04T12:08:02.810Z,98409
2018-01-04T12:10:32.688Z,98407
2018-01-04T12:13:02.726Z,98419
2018-01-04T12:15:32.610Z,98413
2018-01-04T12:18:02.552Z,98406
2018-01-04T12:20:32.539Z,98388
2018-01-04T12:23:02.566Z,98402
2018-01-04T12:25:32.455Z,98406
2018-01-04T12:28:02.349Z,98406
2018-01-04T12:30:32.251Z,98414
2018-01-04T12:33:02.162Z,98406
2018-01-04T12:35:32.061Z,98401
2018-01-04T12:38:02.045Z,98408
2018-01-04T12:40:31.908Z,98404
2018-01-04T12:43:01.897Z,98411
2018-01-04T12:45:31.833Z,98373
2018-01-04T12:48:01.787Z,98407
2018-01-04T12:50:31.767Z,98404
2018-01-04T12:53:01.683Z,98402
2018-01-04T12:55:31.619Z,98391
2018-01-04T12:58:01.705Z,98400
2018-01-04T13:00:32.075Z,98397
2018-01-04T13:03:02.038Z,98385
2018-01-04T13:05:31.985Z,98392
2018-01-04T13:08:01.878Z,98386
2018-01-04T13:10:31.739Z,98383
2018-01-04T13:13:01.630Z,98365
2018-01-04T13:15:31.680Z,98368
2018-01-04T13:18:01.563Z,98370
2018-01-04T13:20:31.459Z,98369
2018-01-04T13:23:01.379Z,98370
2018-01-04T13:25:31.274Z,98366
2018-01-04T13:28:01.184Z,98362
2018-01-04T13:30:31.073Z,98361
2018-01-04T13:33:00.978Z,98360
2018-01-04T13:35:30.912Z,98355
2018-01-04T13:38:00.962Z,98352
2018-01-04T13:40:30.849Z,98354
2018-01-04T13:43:00.968Z,98363
2018-01-04T13:45:30.888Z,98348
2018-01-04T13:48:00.778Z,98343
2018-01-04T13:50:30.637Z,98346
2018-01-04T13:53:00.490Z,98356
2018-01-04T13:55:30.488Z,98358
2018-01-04T13:58:00.387Z,98351
2018-01-04T14:00:30.271Z,98350
2018-01-04T14:03:00.130Z,98356
2018-01-04T14:05:30.022Z,98347
2018-01-04T14:07:59.891Z,98345
2018-01-04T14:10:29.771Z,98351
2018-01-04T14:12:59.741Z,98359
2018-01-04T14:15:29.613Z,98349
2018-01-04T14:17:59.514Z,98345
2018-01-04T14:20:29.470Z,98340
2018-01-04T14:22:59.366Z,98337
2018-01-04T14:25:29.237Z,98327
2018-01-04T14:27:59.224Z,98335
2018-01-04T14:30:29.387Z,98337
2018-01-04T14:32:59.283Z,98338
2018-01-04T14:35:29.263Z,98328
2018-01-04T14:37:59.164Z,98336
2018-01-04T14:40:29.045Z,98346
2018-01-04T14:42:59.054Z,98338
2018-01-04T14:45:29.084Z,98339
2018-01-04T14:47:59.213Z,98331
2018-01-04T14:50:29.135Z,98338
2018-01-04T14:52:59.107Z,98335
2018-01-04T14:55:28.976Z,98334
2018-01-04T14:57:58.921Z,98326
2018-01-04T15:00:28.806Z,98308
2018-01-04T15:02:59.066Z,98319
2018-01-04T15:05:28.969Z,98316
2018-01-04T15:07:58.901Z,98310
2018-01-04T15:10:28.770Z,98312
2018-01-04T15:12:58.932Z,98303
2018-01-04T15:15:29.368Z,98295
2018-01-04T15:17:59.275Z,98288
2018-01-04T15:20:29.422Z,98290
2018-01-04T15:22:59.304Z,98298
2018-01-04T15:25:29.228Z,98298
2018-01-04T15:27:59.739Z,98291
2018-01-04T15:30:29.643Z,98292
2018-01-04T15:32:59.631Z,98288
2018-01-04T15:35:29.629Z,98280
2018-01-04T15:37:59.576Z,98284
2018-01-04T15:40:29.514Z,98285
2018-01-04T15:42:59.501Z,98279
2018-01-04T15:45:29.511Z,98262
2018-01-04T15:47:59.432Z,98273
2018-01-04T15:50:29.463Z,98271
2018-01-04T15:52:59.357Z,98274
2018-01-04T15:55:29.290Z,98262
2018-01-04T15:57:59.208Z,98262
2018-01-04T16:00:29.202Z,98252
2018-01-04T16:02:59.198Z,98252
2018-01-04T16:05:29.133Z,98247
2018-01-04T16:07:59.080Z,98251
2018-01-04T16:10:28.991Z,98244
2018-01-04T16:12:58.876Z,98240
2018-01-04T16:15:28.752Z,98228
2018-01-04T16:17:58.789Z,98222
2018-01-04T16:20:28.665Z,98216
2018-01-04T16:22:58.585Z,98135
2018-01-04T16:25:28.460Z,98216
2018-01-04T16:27:58.415Z,98220
2018-01-04T16:30:28.378Z,98212
2018-01-04T16:32:58.458Z,98210
2018-01-04T16:35:28.386Z,98212
2018-01-04T16:37:58.294Z,98200
2018-01-04T16:40:28.238Z,98197
2018-01-04T16:42:58.169Z,98199
2018-01-04T16:45:28.020Z,98199
2018-01-04T16:47:58.104Z,98198
2018-01-04T16:50:28.001Z,98190
2018-01-04T16:52:58.024Z,98180
2018-01-04T16:55:27.929Z,98182
2018-01-04T16:57:57.862Z,98180
2018-01-04T17:00:28.043Z,98180
2018-01-04T17:02:57.992Z,98170
2018-01-04T17:05:28.031Z,98158
2018-01-04T17:07:57.954Z,98155
2018-01-04T17:10:27.852Z,98154
2018-01-04T17:12:57.745Z,98156
2018-01-04T17:15:27.941Z,98145
2018-01-04T17:17:57.993Z,98148
2018-01-04T17:20:27.892Z,98142
2018-01-04T17:22:57.830Z,98139
2018-01-04T17:25:27.690Z,98135
2018-01-04T17:27:57.586Z,98138
2018-01-04T17:30:27.488Z,98134
2018-01-04T17:32:57.565Z,98120
2018-01-04T17:35:27.484Z,98120
2018-01-04T17:37:57.404Z,98110
2018-01-04T17:40:27.267Z,98097
2018-01-04T17:42:57.273Z,98104
2018-01-04T17:45:27.238Z,98104
2018-01-04T17:47:57.224Z,98101
2018-01-04T17:50:27.234Z,98101
2018-01-04T17:52:57.232Z,98097
2018-01-04T17:55:27.154Z,98099
2018-01-04T17:57:57.050Z,98099
2018-01-04T18:00:26.976Z,98097
2018-01-04T18:02:56.880Z,98097
2018-01-04T18:05:26.819Z,98108
2018-01-04T18:07:57.721Z,98100
2018-01-04T18:10:27.898Z,98095
2018-01-04T18:12:57.819Z,98094
2018-01-04T18:15:27.792Z,98095
2018-01-04T18:17:57.722Z,98092
2018-01-04T18:20:27.646Z,98089
2018-01-04T18:22:57.666Z,98086
2018-01-04T18:25:27.643Z,98080
2018-01-04T18:27:57.528Z,98075
2018-01-04T18:30:27.449Z,98075
2018-01-04T18:32:57.335Z,98066
2018-01-04T18:35:27.254Z,98053
2018-01-04T18:37:57.290Z,98063
2018-01-04T18:40:27.245Z,98061
2018-01-04T18:42:57.183Z,98054
2018-01-04T18:45:27.072Z,98063
2018-01-04T18:47:57.045Z,98052
2018-01-04T18:50:27.019Z,98050
2018-01-04T18:52:56.900Z,98052
2018-01-04T18:55:27.601Z,98044
2018-01-04T18:57:57.543Z,98036
2018-01-04T19:00:27.475Z,98029
2018-01-04T19:02:58.307Z,98028
2018-01-04T19:05:28.268Z,98028
2018-01-04T19:07:58.248Z,98021
2018-01-04T19:10:28.187Z,98024
2018-01-04T19:12:58.095Z,98024
2018-01-04T19:15:28.063Z,98014
2018-01-04T19:17:58.251Z,98005
2018-01-04T19:20:28.274Z,98007
2018-01-04T19:22:58.252Z,97994
2018-01-04T19:25:28.580Z,97994
2018-01-04T19:27:58.735Z,98021
2018-01-04T19:30:28.706Z,97987
2018-01-04T19:32:58.623Z,97988
2018-01-04T19:35:28.612Z,97989
2018-01-04T19:37:58.543Z,97977
2018-01-04T19:40:28.544Z,97976
2018-01-04T19:42:59.131Z,97975
2018-01-04T19:45:29.185Z,97967
2018-01-04T19:47:59.138Z,97963
2018-01-04T19:50:29.089Z,97945
2018-01-04T19:52:59.036Z,97949
2018-01-04T19:55:29.441Z,97950
2018-01-04T19:57:59.369Z,97938
2018-01-04T20:00:29.303Z,97933
2018-01-04T20:02:59.224Z,97926
2018-01-04T20:05:29.328Z,97896
2018-01-04T20:07:59.316Z,97930
2018-01-04T20:10:29.320Z,97920
2018-01-04T20:12:59.231Z,97907
2018-01-04T20:15:29.237Z,97892
2018-01-04T20:17:59.265Z,97886
2018-01-04T20:20:29.225Z,97874
2018-01-04T20:22:59.201Z,97880
2018-01-04T20:25:29.166Z,97884
2018-01-04T20:27:59.053Z,97884
2018-01-04T20:30:29.010Z,97881
2018-01-04T20:32:58.950Z,97871
2018-01-04T20:35:28.910Z,97871
2018-01-04T20:37:58.886Z,97866
2018-01-04T20:40:28.843Z,97844
2018-01-04T20:42:58.834Z,97847
2018-01-04T20:45:28.926Z,97847
2018-01-04T20:47:58.940Z,97840
2018-01-04T20:50:29.421Z,97828
2018-01-04T20:52:59.516Z,97818
2018-01-04T20:55:30.598Z,97818
2018-01-04T20:58:00.612Z,97813
2018-01-04T21:00:30.608Z,97817
2018-01-04T21:03:00.584Z,97820
2018-01-04T21:05:30.852Z,97821
2018-01-04T21:08:00.874Z,97819
2018-01-04T21:10:31.004Z,97827
2018-01-04T21:13:01.090Z,97820
2018-01-04T21:15:30.977Z,97814
2018-01-04T21:18:01.143Z,97795
2018-01-04T21:20:31.009Z,97812
2018-01-04T21:23:01.260Z,97811
2018-01-04T21:25:31.230Z,97803
2018-01-04T21:28:01.309Z,97788
2018-01-04T21:30:31.782Z,97792
2018-01-04T21:33:01.814Z,97800
2018-01-04T21:35:31.757Z,97794
2018-01-04T21:38:01.688Z,97791
2018-01-04T21:40:31.759Z,97783
2018-01-04T21:43:02.106Z,97788
2018-01-04T21:45:32.984Z,97787
2018-01-04T21:48:03.743Z,97784
2018-01-04T21:50:33.651Z,97780
2018-01-04T21:53:03.757Z,97785
2018-01-04T21:55:33.674Z,97779
2018-01-04T21:58:03.712Z,97786
2018-01-04T22:00:33.680Z,97790
2018-01-04T22:03:03.777Z,97767
2018-01-04T22:05:33.774Z,97775
2018-01-04T22:08:03.929Z,97777
2018-01-04T22:10:33.866Z,97781
2018-01-04T22:13:03.790Z,97783
2018-01-04T22:15:33.677Z,97775
2018-01-04T22:18:03.560Z,97772
2018-01-04T22:20:33.493Z,97778
2018-01-04T22:23:03.410Z,97777
2018-01-04T22:25:33.307Z,97773
2018-01-04T22:28:03.222Z,97767
2018-01-04T22:30:34.016Z,97757
2018-01-04T22:33:03.909Z,97759
2018-01-04T22:35:33.839Z,97753
2018-01-04T22:38:03.845Z,97758
2018-01-04T22:40:33.728Z,97712
2018-01-04T22:43:03.647Z,97757
2018-01-04T22:45:33.545Z,97771
2018-01-04T22:48:03.472Z,97767
2018-01-04T22:50:33.606Z,97710
2018-01-04T22:53:03.554Z,97772
2018-01-04T22:55:33.435Z,97761
2018-01-04T22:58:03.338Z,97766
2018-01-04T23:00:33.256Z,97766
2018-01-04T23:03:03.161Z,97773
2018-01-04T23:05:33.078Z,97676
2018-01-04T23:08:03.043Z,97737
2018-01-04T23:10:33.022Z,97771
2018-01-04T23:13:02.944Z,97775
2018-01-04T23:15:32.823Z,97774
2018-01-04T23:18:02.735Z,97732
2018-01-04T23:20:32.607Z,97776
2018-01-04T23:23:02.467Z,97778
2018-01-04T23:25:32.390Z,97773
2018-01-04T23:28:02.300Z,97759
2018-01-04T23:30:32.169Z,97738
2018-01-04T23:33:02.027Z,97770
2018-01-04T23:35:31.919Z,97779
2018-01-04T23:38:01.817Z,97761
2018-01-04T23:40:31.689Z,97736
2018-01-04T23:43:01.679Z,97755
2018-01-04T23:45:31.580Z,97725
2018-01-04T23:48:01.458Z,97758
2018-01-04T23:50:31.369Z,97767
2018-01-04T23:53:01.251Z,97768
2018-01-04T23:55:31.177Z,97768
2018-01-04T23:58:01.059Z,97708
